Time;durP1;ratioP1;P1;durP2;ratioP2;P2;SDS_P1;SDS_P2;PMS_P1;PMS_P2;Temp;Humidity;BMP_temperature;BMP_pressure;BME280_temperature;BME280_humidity;BME280_pressure;Samples;Min_cycle;Max_cycle;Signal;HPM_P1;HPM_P2
2024/02/22 08:16:24;;;;;;;1.17;0.90;;;11.60;99.90;;;;;;4922998;23;20295;-80
2024/02/22 08:18:51;;;;;;;1.30;0.97;;;11.70;99.90;;;;;;4918496;29;20320;-85
2024/02/22 08:21:20;;;;;;;1.63;1.00;;;11.80;99.90;;;;;;4919265;29;20354;-81
2024/02/22 08:23:51;;;;;;;3.10;0.90;;;11.80;99.90;;;;;;4912318;29;20262;-79
2024/02/22 08:26:18;;;;;;;1.50;1.00;;;11.80;99.90;;;;;;4907405;29;20209;-82
2024/02/22 08:28:45;;;;;;;1.00;0.80;;;11.70;99.90;;;;;;4917934;29;20288;-82
2024/02/22 08:31:12;;;;;;;3.20;0.70;;;11.80;99.90;;;;;;4917612;29;20300;-79
2024/02/22 08:33:41;;;;;;;0.90;0.70;;;11.90;99.90;;;;;;4917578;29;20240;-80
2024/02/22 08:36:08;;;;;;;2.13;0.63;;;12.00;99.90;;;;;;4917749;29;20209;-79
2024/02/22 08:38:35;;;;;;;0.50;0.40;;;12.00;99.90;;;;;;4917420;29;20598;-79
2024/02/22 08:41:04;;;;;;;1.70;0.80;;;12.10;99.90;;;;;;4917657;29;20217;-79
2024/02/22 08:43:31;;;;;;;0.50;0.40;;;12.00;99.90;;;;;;4917147;29;20324;-79
2024/02/22 08:46:01;;;;;;;0.90;0.60;;;12.10;99.90;;;;;;4917556;29;20217;-79
2024/02/22 08:48:28;;;;;;;0.57;0.43;;;12.10;99.90;;;;;;4917313;29;20248;-79
2024/02/22 08:50:57;;;;;;;0.70;0.47;;;12.30;99.90;;;;;;4917446;29;20703;-79
2024/02/22 08:53:24;;;;;;;0.40;0.40;;;12.20;99.90;;;;;;4917319;29;20233;-79
2024/02/22 08:55:51;;;;;;;0.83;0.37;;;12.30;99.90;;;;;;4917395;29;20573;-78
2024/02/22 08:58:18;;;;;;;0.70;0.40;;;12.30;99.90;;;;;;4917081;29;20237;-80
2024/02/22 09:00:45;;;;;;;2.43;0.47;;;12.60;99.90;;;;;;4916808;29;20213;-79
2024/02/22 09:03:12;;;;;;;0.97;0.53;;;12.70;99.90;;;;;;4916977;29;20716;-79
2024/02/22 09:05:41;;;;;;;0.70;0.40;;;12.70;99.90;;;;;;4916993;29;20209;-78
2024/02/22 09:08:09;;;;;;;0.60;0.30;;;12.80;99.90;;;;;;4917019;29;20224;-79
2024/02/22 09:10:36;;;;;;;0.40;0.30;;;12.80;99.90;;;;;;4916958;29;20215;-79
2024/02/22 09:13:02;;;;;;;2.73;0.30;;;12.70;99.90;;;;;;4917140;29;20234;-79
2024/02/22 09:15:29;;;;;;;0.30;0.20;;;12.80;99.90;;;;;;4916853;29;20307;-79
2024/02/22 09:17:56;;;;;;;0.30;0.20;;;12.80;99.90;;;;;;4917048;29;20687;-79
2024/02/22 09:20:23;;;;;;;0.37;0.23;;;12.80;99.90;;;;;;4916721;29;20304;-79
2024/02/22 09:22:50;;;;;;;0.30;0.27;;;12.70;99.90;;;;;;4916767;29;20799;-79
2024/02/22 09:25:18;;;;;;;0.30;0.30;;;12.80;99.90;;;;;;4916826;29;20739;-79
2024/02/22 09:27:45;;;;;;;0.60;0.30;;;12.80;99.90;;;;;;4916619;29;20216;-79
2024/02/22 09:30:13;;;;;;;0.23;0.20;;;12.80;99.90;;;;;;4917046;29;20629;-78
2024/02/22 09:32:40;;;;;;;0.40;0.30;;;12.90;99.90;;;;;;4916572;29;20233;-79
2024/02/22 09:35:07;;;;;;;0.53;0.30;;;12.90;99.90;;;;;;4916898;29;20292;-79
2024/02/22 09:37:34;;;;;;;1.57;0.40;;;13.00;99.90;;;;;;4916660;29;20213;-79
2024/02/22 09:40:01;;;;;;;0.50;0.30;;;13.10;99.90;;;;;;4916989;29;20328;-79
2024/02/22 09:42:30;;;;;;;0.40;0.30;;;13.20;99.90;;;;;;4916352;29;20292;-79
2024/02/22 09:44:57;;;;;;;0.50;0.30;;;13.10;99.90;;;;;;4917018;29;20264;-79
2024/02/22 09:47:24;;;;;;;0.50;0.30;;;13.00;99.90;;;;;;4916789;29;20221;-79
2024/02/22 09:49:51;;;;;;;0.50;0.23;;;13.00;99.90;;;;;;4916787;29;20209;-79
2024/02/22 09:52:19;;;;;;;0.47;0.30;;;12.90;99.90;;;;;;4916608;29;20264;-79
2024/02/22 09:54:46;;;;;;;0.30;0.10;;;12.80;99.90;;;;;;4916024;29;20264;-79
2024/02/22 09:57:14;;;;;;;1.80;0.40;;;12.70;99.90;;;;;;4916595;29;20677;-79
2024/02/22 09:59:50;;;;;;;0.90;0.20;;;12.50;99.90;;;;;;4916689;29;20245;-80
2024/02/22 10:02:17;;;;;;;0.60;0.40;;;12.50;99.90;;;;;;4916285;29;20240;-80
2024/02/22 10:04:52;;;;;;;0.53;0.30;;;12.50;99.90;;;;;;4916395;29;20665;-79
2024/02/22 10:07:23;;;;;;;0.37;0.20;;;12.60;99.90;;;;;;4916839;29;20224;-80
2024/02/22 10:09:50;;;;;;;0.67;0.30;;;12.60;99.90;;;;;;4916647;29;20220;-79
2024/02/22 10:12:23;;;;;;;0.30;0.30;;;12.60;99.90;;;;;;4916338;29;20316;-81
2024/02/22 10:14:52;;;;;;;0.50;0.23;;;12.60;99.90;;;;;;4916458;29;20214;-80
2024/02/22 10:17:22;;;;;;;0.53;0.30;;;12.60;99.90;;;;;;4916334;29;20245;-80
2024/02/22 10:19:59;;;;;;;0.60;0.20;;;12.60;99.90;;;;;;4916279;29;20280;-79
2024/02/22 10:22:27;;;;;;;0.83;0.30;;;12.60;99.90;;;;;;4916502;29;20315;-80
2024/02/22 10:24:55;;;;;;;0.63;0.40;;;12.80;99.90;;;;;;4922855;29;20641;-79
2024/02/22 10:27:24;;;;;;;0.40;0.20;;;12.80;99.90;;;;;;4920880;29;20206;-80
2024/02/22 10:29:53;;;;;;;0.50;0.20;;;12.80;99.90;;;;;;4916180;29;20568;-80
2024/02/22 10:32:20;;;;;;;0.40;0.17;;;12.80;99.90;;;;;;4916226;29;20310;-80
2024/02/22 10:34:50;;;;;;;0.30;0.23;;;12.80;99.90;;;;;;4916364;29;20304;-80
2024/02/22 10:37:18;;;;;;;0.20;0.20;;;12.80;99.90;;;;;;4916090;29;20216;-80
2024/02/22 10:39:46;;;;;;;0.30;0.20;;;12.70;99.90;;;;;;4916002;29;20273;-80
2024/02/22 10:42:14;;;;;;;0.37;0.20;;;12.70;99.90;;;;;;4916129;29;20312;-79
2024/02/22 10:44:43;;;;;;;0.20;0.10;;;12.70;99.90;;;;;;4916082;29;20224;-80
2024/02/22 10:47:12;;;;;;;0.20;0.10;;;12.70;99.90;;;;;;4916145;29;20210;-80
2024/02/22 10:49:39;;;;;;;0.27;0.17;;;12.70;99.90;;;;;;4916075;29;20214;-80
2024/02/22 10:52:08;;;;;;;0.57;0.40;;;12.70;99.90;;;;;;4915936;29;20233;-80
2024/02/22 10:54:35;;;;;;;0.20;0.07;;;12.70;99.90;;;;;;4915951;29;20209;-80
2024/02/22 10:57:03;;;;;;;2.60;0.50;;;12.80;99.90;;;;;;4916282;29;20300;-79
2024/02/22 10:59:33;;;;;;;0.20;0.10;;;12.70;99.90;;;;;;4916057;29;20658;-80
2024/02/22 11:02:00;;;;;;;0.40;0.20;;;12.80;99.90;;;;;;4915870;29;20723;-80
2024/02/22 11:04:28;;;;;;;0.30;0.20;;;12.80;99.90;;;;;;4915946;29;20241;-80
2024/02/22 11:06:55;;;;;;;1.07;0.20;;;12.90;99.90;;;;;;4917959;29;20244;-80
2024/02/22 11:09:24;;;;;;;0.20;0.10;;;13.00;99.90;;;;;;4919554;29;20293;-80
2024/02/22 11:11:52;;;;;;;0.20;0.00;;;13.00;99.90;;;;;;4919138;29;20210;-80
2024/02/22 11:14:29;;;;;;;0.20;0.10;;;13.10;99.90;;;;;;4919616;29;20217;-80
2024/02/22 11:16:59;;;;;;;0.20;0.10;;;13.20;99.90;;;;;;4918852;29;20304;-80
2024/02/22 11:19:28;;;;;;;0.30;0.13;;;13.40;99.90;;;;;;4919254;29;20301;-80
2024/02/22 11:21:56;;;;;;;0.20;0.10;;;13.60;99.90;;;;;;4919368;29;20234;-80
2024/02/22 11:24:25;;;;;;;0.20;0.20;;;13.80;99.90;;;;;;4919140;29;20264;-80
2024/02/22 11:26:54;;;;;;;0.93;0.13;;;13.80;99.90;;;;;;4918907;29;20249;-80
2024/02/22 11:29:29;;;;;;;0.40;0.10;;;13.70;99.90;;;;;;4920303;29;20277;-80
2024/02/22 11:31:58;;;;;;;0.30;0.20;;;13.60;99.90;;;;;;4918939;29;20629;-80
2024/02/22 11:34:26;;;;;;;0.53;0.27;;;13.50;99.90;;;;;;4919027;29;20213;-79
2024/02/22 11:36:57;;;;;;;0.20;0.10;;;13.60;99.90;;;;;;4918880;29;20224;-80
2024/02/22 11:39:24;;;;;;;0.20;0.10;;;13.60;99.90;;;;;;4918650;29;20268;-80
2024/02/22 11:41:51;;;;;;;0.20;0.10;;;13.70;99.90;;;;;;4918419;29;20625;-80
2024/02/22 11:44:18;;;;;;;0.40;0.20;;;13.70;99.90;;;;;;4918415;29;20655;-79
2024/02/22 11:46:46;;;;;;;0.60;0.30;;;13.90;99.90;;;;;;4918730;29;20740;-80
2024/02/22 11:49:14;;;;;;;0.20;0.10;;;14.00;99.90;;;;;;4918274;29;20763;-79
2024/02/22 11:51:41;;;;;;;0.40;0.20;;;14.00;99.90;;;;;;4918536;29;20337;-79
2024/02/22 11:54:10;;;;;;;0.50;0.30;;;13.80;99.90;;;;;;4918596;29;20300;-79
2024/02/22 11:56:37;;;;;;;0.37;0.20;;;13.80;99.90;;;;;;4918595;29;20304;-79
2024/02/22 11:59:07;;;;;;;0.20;0.10;;;13.80;99.90;;;;;;4918671;29;20587;-79
2024/02/22 12:01:37;;;;;;;0.27;0.10;;;13.90;99.90;;;;;;4918200;29;20206;-79
2024/02/22 12:04:05;;;;;;;0.57;0.10;;;13.90;99.90;;;;;;4917745;29;20206;-78
2024/02/22 12:06:32;;;;;;;1.50;0.10;;;13.80;99.90;;;;;;4918521;29;20238;-80
2024/02/22 12:08:59;;;;;;;0.20;0.10;;;13.80;99.90;;;;;;4918122;29;20206;-79
2024/02/22 12:11:27;;;;;;;0.33;0.10;;;13.80;99.90;;;;;;4917774;29;20245;-77
2024/02/22 12:13:56;;;;;;;0.20;0.10;;;13.80;99.90;;;;;;4917793;29;20235;-80
2024/02/22 12:16:23;;;;;;;0.20;0.10;;;13.80;99.90;;;;;;4917722;29;20269;-79
2024/02/22 12:18:51;;;;;;;0.20;0.10;;;13.70;99.90;;;;;;4911192;29;20225;-80
2024/02/22 12:21:22;;;;;;;0.30;0.10;;;13.70;99.90;;;;;;4917780;29;20209;-80
2024/02/22 12:23:49;;;;;;;0.37;0.10;;;13.60;99.90;;;;;;4917370;29;20696;-79
2024/02/22 12:26:18;;;;;;;0.20;0.10;;;13.60;99.90;;;;;;4917908;29;20213;-79
2024/02/22 12:28:49;;;;;;;0.20;0.10;;;13.80;99.90;;;;;;4917483;29;20411;-80
2024/02/22 12:31:18;;;;;;;0.20;0.10;;;13.90;99.90;;;;;;4917275;29;20594;-78
2024/02/22 12:33:46;;;;;;;0.20;0.10;;;13.90;99.90;;;;;;4917533;29;20237;-78
2024/02/22 12:36:13;;;;;;;0.20;0.10;;;13.80;99.90;;;;;;4917856;29;20297;-78
2024/02/22 12:38:40;;;;;;;0.30;0.30;;;13.70;99.90;;;;;;4918328;29;20237;-78
2024/02/22 12:41:07;;;;;;;0.20;0.10;;;13.80;99.90;;;;;;4917527;29;20328;-77
2024/02/22 12:43:34;;;;;;;0.33;0.30;;;13.80;99.90;;;;;;4917218;29;20316;-78
2024/02/22 12:46:02;;;;;;;0.23;0.10;;;13.80;99.90;;;;;;4917305;29;20568;-77
2024/02/22 12:48:29;;;;;;;0.73;0.20;;;13.90;99.90;;;;;;4916876;29;20220;-77
2024/02/22 12:50:56;;;;;;;0.20;0.10;;;13.80;99.90;;;;;;4917487;29;20206;-77
2024/02/22 12:53:23;;;;;;;0.20;0.10;;;13.80;99.90;;;;;;4917117;29;20243;-78
2024/02/22 12:55:50;;;;;;;0.20;0.10;;;13.70;99.90;;;;;;4917344;29;20216;-78
2024/02/22 12:58:17;;;;;;;0.20;0.10;;;13.80;99.90;;;;;;4916773;29;20297;-78
2024/02/22 13:00:44;;;;;;;0.20;0.10;;;13.80;99.90;;;;;;4917079;29;20328;-77
2024/02/22 13:03:12;;;;;;;0.30;0.20;;;13.70;99.90;;;;;;4916937;29;20333;-78
2024/02/22 13:05:39;;;;;;;0.20;0.10;;;13.60;99.90;;;;;;4917009;29;20214;-78
2024/02/22 13:08:07;;;;;;;0.20;0.10;;;13.50;99.90;;;;;;4916680;29;20305;-78
2024/02/22 13:10:34;;;;;;;0.73;0.17;;;13.50;99.90;;;;;;4916991;29;20216;-78
2024/02/22 13:13:01;;;;;;;0.20;0.10;;;13.60;99.90;;;;;;4916580;29;20257;-78
2024/02/22 13:15:29;;;;;;;0.23;0.10;;;13.60;99.90;;;;;;4916776;29;20978;-78
2024/02/22 13:17:56;;;;;;;0.20;0.20;;;13.60;99.90;;;;;;4916223;29;20213;-78
2024/02/22 13:20:26;;;;;;;0.60;0.20;;;13.70;99.90;;;;;;4916658;29;20333;-77
2024/02/22 13:22:55;;;;;;;0.50;0.20;;;13.70;99.90;;;;;;4916266;29;20233;-77
2024/02/22 13:25:22;;;;;;;0.20;0.10;;;13.60;99.90;;;;;;4916708;29;20225;-78
2024/02/22 13:27:49;;;;;;;0.20;0.10;;;13.50;99.90;;;;;;4916905;29;20296;-77
2024/02/22 13:30:16;;;;;;;0.20;0.10;;;13.40;99.90;;;;;;4916204;29;20248;-78
2024/02/22 13:32:44;;;;;;;0.30;0.20;;;13.30;99.90;;;;;;4916343;29;20316;-78
2024/02/22 13:35:11;;;;;;;0.30;0.20;;;13.30;99.90;;;;;;4916448;29;20216;-78
2024/02/22 13:37:40;;;;;;;0.60;0.20;;;13.30;99.90;;;;;;4916442;29;20244;-78
2024/02/22 13:40:08;;;;;;;1.90;0.20;;;13.30;99.90;;;;;;4916568;29;20244;-79
2024/02/22 13:42:36;;;;;;;0.70;0.30;;;13.30;99.90;;;;;;4916479;29;20319;-78
2024/02/22 13:45:04;;;;;;;0.30;0.20;;;13.50;99.90;;;;;;4916460;29;20313;-78
2024/02/22 13:47:32;;;;;;;0.30;0.10;;;13.60;99.90;;;;;;4916133;29;20220;-78
2024/02/22 13:49:59;;;;;;;0.33;0.17;;;13.60;99.90;;;;;;4916534;29;20209;-79
2024/02/22 13:52:27;;;;;;;0.20;0.10;;;13.50;99.90;;;;;;4916129;29;20301;-78
2024/02/22 13:54:56;;;;;;;0.20;0.10;;;13.40;99.90;;;;;;4916097;29;20661;-78
2024/02/22 13:57:23;;;;;;;0.20;0.10;;;13.40;99.90;;;;;;4915087;29;20210;-79
2024/02/22 13:59:50;;;;;;;0.30;0.10;;;13.40;99.90;;;;;;4915941;29;20379;-79
2024/02/22 14:02:16;;;;;;;0.20;0.10;;;13.50;99.90;;;;;;4916342;29;20236;-78
2024/02/22 14:04:43;;;;;;;0.37;0.13;;;13.60;99.90;;;;;;4916305;29;20233;-79
2024/02/22 14:07:12;;;;;;;0.40;0.10;;;13.60;99.90;;;;;;4916119;29;20289;-78
2024/02/22 14:09:39;;;;;;;0.40;0.20;;;13.60;99.90;;;;;;4916472;29;20656;-78
2024/02/22 14:12:08;;;;;;;0.43;0.10;;;13.60;99.90;;;;;;4916766;29;20312;-78
2024/02/22 14:14:35;;;;;;;0.20;0.10;;;13.60;99.90;;;;;;4916028;29;20213;-79
2024/02/22 14:17:02;;;;;;;0.83;0.20;;;13.60;99.90;;;;;;4916272;29;20223;-78
2024/02/22 14:19:29;;;;;;;0.60;0.20;;;13.70;99.90;;;;;;4915940;29;20296;-78
2024/02/22 14:21:56;;;;;;;0.30;0.17;;;13.80;99.90;;;;;;4916476;29;20316;-78
2024/02/22 14:24:24;;;;;;;1.60;0.20;;;13.70;99.90;;;;;;4916169;29;20216;-78
2024/02/22 14:26:52;;;;;;;0.50;0.30;;;13.70;99.90;;;;;;4916383;29;20213;-77
2024/02/22 14:29:21;;;;;;;0.23;0.13;;;13.70;99.90;;;;;;4916200;29;20237;-78
2024/02/22 14:31:49;;;;;;;0.40;0.17;;;13.60;99.90;;;;;;4915673;29;20222;-77
2024/02/22 14:34:16;;;;;;;0.60;0.40;;;13.60;99.90;;;;;;4916588;29;20269;-78
2024/02/22 14:36:44;;;;;;;0.70;0.27;;;13.60;99.90;;;;;;4916129;29;20218;-77
2024/02/22 14:39:12;;;;;;;0.30;0.20;;;13.50;99.90;;;;;;4916137;29;20253;-77
2024/02/22 14:41:39;;;;;;;0.77;0.33;;;13.50;99.90;;;;;;4919045;29;20245;-78
2024/02/22 14:44:05;;;;;;;0.30;0.13;;;13.50;99.90;;;;;;4919569;29;20231;-77
2024/02/22 14:46:34;;;;;;;1.53;0.20;;;13.50;99.90;;;;;;4919048;29;20304;-77
2024/02/22 14:49:01;;;;;;;0.20;0.20;;;13.60;99.90;;;;;;4919588;29;20213;-78
2024/02/22 14:51:27;;;;;;;1.07;0.30;;;13.60;99.90;;;;;;4919209;29;20293;-77
2024/02/22 14:53:54;;;;;;;0.30;0.10;;;13.60;99.90;;;;;;4918940;29;20316;-78
2024/02/22 14:56:21;;;;;;;0.20;0.10;;;13.50;99.90;;;;;;4919094;29;20213;-79
2024/02/22 14:58:48;;;;;;;0.37;0.20;;;13.50;99.90;;;;;;4919117;29;20643;-79
2024/02/22 15:01:15;;;;;;;0.20;0.10;;;13.50;99.90;;;;;;4919226;29;20276;-78
2024/02/22 15:03:44;;;;;;;0.33;0.10;;;13.40;99.90;;;;;;4919653;29;20289;-78
2024/02/22 15:06:12;;;;;;;0.30;0.20;;;13.30;99.90;;;;;;4919075;29;20261;-78
2024/02/22 15:08:40;;;;;;;0.50;0.27;;;13.30;99.90;;;;;;4919095;29;20209;-78
2024/02/22 15:11:08;;;;;;;0.37;0.20;;;13.30;99.90;;;;;;4919099;29;20574;-79
2024/02/22 15:13:36;;;;;;;0.80;0.17;;;13.20;99.90;;;;;;4919031;29;20233;-79
2024/02/22 15:16:04;;;;;;;0.30;0.10;;;13.10;99.90;;;;;;4919077;29;20521;-78
2024/02/22 15:18:31;;;;;;;0.30;0.10;;;13.00;99.90;;;;;;4919097;29;20209;-79
2024/02/22 15:20:59;;;;;;;0.40;0.17;;;13.00;99.90;;;;;;4919093;29;20336;-79
2024/02/22 15:23:30;;;;;;;0.20;0.20;;;12.90;99.90;;;;;;4918906;29;20237;-78
2024/02/22 15:25:57;;;;;;;0.20;0.20;;;12.90;99.90;;;;;;4918843;29;20288;-78
2024/02/22 15:28:24;;;;;;;0.57;0.20;;;12.90;99.90;;;;;;4918756;29;20229;-79
2024/02/22 15:30:51;;;;;;;0.93;0.10;;;12.80;99.90;;;;;;4918714;29;20684;-79
2024/02/22 15:33:18;;;;;;;0.30;0.20;;;12.70;99.90;;;;;;4918989;29;20249;-79
2024/02/22 15:35:45;;;;;;;0.73;0.50;;;12.60;99.90;;;;;;4918364;29;20317;-79
2024/02/22 15:38:13;;;;;;;0.23;0.10;;;12.40;99.90;;;;;;4918868;29;20765;-80
2024/02/22 15:40:40;;;;;;;0.30;0.20;;;12.30;99.90;;;;;;4918653;29;20301;-80
2024/02/22 15:43:08;;;;;;;0.20;0.13;;;12.10;99.90;;;;;;4918879;29;20320;-80
2024/02/22 15:45:35;;;;;;;2.00;0.83;;;12.00;99.90;;;;;;4918484;29;20661;-80
2024/02/22 15:48:02;;;;;;;0.83;0.17;;;11.90;99.90;;;;;;4918462;29;20659;-81
2024/02/22 15:50:30;;;;;;;1.27;0.10;;;11.80;99.90;;;;;;4918542;29;20260;-81
2024/02/22 15:52:58;;;;;;;0.47;0.13;;;11.70;99.90;;;;;;4917583;29;20229;-81
2024/02/22 15:55:26;;;;;;;0.20;0.10;;;11.60;99.90;;;;;;4918579;29;20220;-81
2024/02/22 15:57:53;;;;;;;1.03;0.17;;;11.60;99.90;;;;;;4918703;29;20296;-81
2024/02/22 16:00:20;;;;;;;0.40;0.13;;;11.60;99.90;;;;;;4918383;29;20232;-81
2024/02/22 16:02:47;;;;;;;0.53;0.10;;;11.50;99.90;;;;;;4918166;29;20237;-81
2024/02/22 16:05:14;;;;;;;0.57;0.13;;;11.50;99.90;;;;;;4918139;29;20300;-80
2024/02/22 16:07:41;;;;;;;0.30;0.17;;;11.50;99.90;;;;;;4918055;29;20210;-81
2024/02/22 16:10:09;;;;;;;0.30;0.10;;;11.50;99.90;;;;;;4918347;29;20273;-81
2024/02/22 16:12:39;;;;;;;0.80;0.10;;;11.40;99.90;;;;;;4917865;29;20312;-81
2024/02/22 16:15:10;;;;;;;0.20;0.10;;;11.40;99.90;;;;;;4918032;29;20704;-81
2024/02/22 16:17:37;;;;;;;0.30;0.17;;;11.40;99.90;;;;;;4918006;29;20210;-80
2024/02/22 16:20:04;;;;;;;0.20;0.10;;;11.40;99.90;;;;;;4918272;29;20269;-80
2024/02/22 16:22:31;;;;;;;0.20;0.03;;;11.30;99.90;;;;;;4917885;29;20233;-81
2024/02/22 16:24:58;;;;;;;0.60;0.20;;;11.30;99.90;;;;;;4917942;29;20320;-80
2024/02/22 16:27:25;;;;;;;7.43;0.30;;;11.20;99.90;;;;;;4917758;29;20296;-79
2024/02/22 16:29:54;;;;;;;0.97;0.10;;;11.20;99.90;;;;;;4917343;29;20745;-79
2024/02/22 16:32:21;;;;;;;0.30;0.17;;;11.20;99.90;;;;;;4917162;29;20234;-79
2024/02/22 16:34:48;;;;;;;0.50;0.10;;;11.30;99.90;;;;;;4917558;29;20292;-80
2024/02/22 16:37:14;;;;;;;0.40;0.30;;;11.30;99.90;;;;;;4918025;29;20216;-79
2024/02/22 16:39:43;;;;;;;0.33;0.13;;;11.20;99.90;;;;;;4918030;29;20237;-78
2024/02/22 16:42:10;;;;;;;0.70;0.10;;;11.30;99.90;;;;;;4917253;29;20233;-79
2024/02/22 16:44:39;;;;;;;0.40;0.10;;;11.30;99.90;;;;;;4917331;29;20696;-80
2024/02/22 16:47:09;;;;;;;0.33;0.20;;;11.30;99.90;;;;;;4917223;29;20764;-80
2024/02/22 16:49:36;;;;;;;1.40;0.30;;;11.40;99.90;;;;;;4917167;29;20206;-80
2024/02/22 16:52:06;;;;;;;0.50;0.20;;;11.40;99.90;;;;;;4917500;29;20315;-79
2024/02/22 16:54:34;;;;;;;0.60;0.40;;;11.40;99.90;;;;;;4917170;29;20213;-80
2024/02/22 16:57:01;;;;;;;0.30;0.10;;;11.40;99.90;;;;;;4917240;29;20210;-79
2024/02/22 16:59:27;;;;;;;0.20;0.00;;;11.40;99.90;;;;;;4916897;29;20654;-78
2024/02/22 17:01:54;;;;;;;0.63;0.10;;;11.40;99.90;;;;;;4916821;29;20283;-79
2024/02/22 17:04:23;;;;;;;0.50;0.20;;;11.50;99.90;;;;;;4917198;29;20220;-79
2024/02/22 17:06:53;;;;;;;0.40;0.10;;;11.50;99.90;;;;;;4917049;29;20216;-79
2024/02/22 17:09:22;;;;;;;0.20;0.20;;;11.50;99.90;;;;;;4916779;29;20669;-79
2024/02/22 17:11:49;;;;;;;0.53;0.20;;;11.60;99.90;;;;;;4917037;29;20213;-78
2024/02/22 17:14:16;;;;;;;1.33;0.33;;;11.60;99.90;;;;;;4917000;29;20727;-79
2024/02/22 17:16:43;;;;;;;0.53;0.20;;;11.40;99.90;;;;;;4916536;29;20218;-80
2024/02/22 17:19:10;;;;;;;0.77;0.10;;;10.20;99.90;;;;;;4916668;29;20700;-81
2024/02/22 17:21:38;;;;;;;0.93;0.20;;;9.30;99.90;;;;;;4916749;29;20772;-79
2024/02/22 17:24:06;;;;;;;0.80;0.40;;;8.80;99.90;;;;;;4916684;29;20297;-80
2024/02/22 17:26:33;;;;;;;0.30;0.20;;;8.70;99.90;;;;;;4916550;29;20296;-79
2024/02/22 17:29:00;;;;;;;0.77;0.30;;;8.70;99.90;;;;;;4916482;29;20574;-79
2024/02/22 17:31:28;;;;;;;0.40;0.17;;;8.60;99.90;;;;;;4916420;29;20292;-79
2024/02/22 17:33:55;;;;;;;3.47;0.30;;;8.70;99.90;;;;;;4916663;29;20261;-80
2024/02/22 17:36:22;;;;;;;0.30;0.20;;;8.70;99.90;;;;;;4916367;29;20296;-80
2024/02/22 17:38:50;;;;;;;2.43;0.97;;;8.80;99.90;;;;;;4916409;29;20237;-79
2024/02/22 17:41:17;;;;;;;3.50;0.30;;;8.80;99.90;;;;;;4916266;29;20272;-79
2024/02/22 17:43:46;;;;;;;1.47;0.30;;;8.90;99.90;;;;;;4916366;29;20321;-79
2024/02/22 17:46:13;;;;;;;2.13;0.20;;;8.90;99.90;;;;;;4917525;29;20273;-80
2024/02/22 17:48:40;;;;;;;0.37;0.20;;;9.00;99.90;;;;;;4916376;29;20257;-80
2024/02/22 17:51:08;;;;;;;4.17;0.50;;;9.00;99.90;;;;;;4916493;29;20294;-78
2024/02/22 17:53:36;;;;;;;4.93;0.50;;;9.00;99.90;;;;;;4915864;29;20320;-79
2024/02/22 17:56:05;;;;;;;2.07;0.30;;;9.00;99.90;;;;;;4916015;29;20213;-80
2024/02/22 17:58:35;;;;;;;2.07;0.37;;;8.90;99.90;;;;;;4915998;29;20348;-79
2024/02/22 18:01:02;;;;;;;1.03;0.57;;;8.90;99.90;;;;;;4915863;29;20739;-79
2024/02/22 18:03:29;;;;;;;2.50;0.97;;;8.90;99.90;;;;;;4915839;29;20240;-79
2024/02/22 18:05:56;;;;;;;1.60;0.70;;;8.90;99.90;;;;;;4915906;29;20309;-78
2024/02/22 18:08:23;;;;;;;6.73;1.13;;;8.90;99.90;;;;;;4915952;29;20296;-79
2024/02/22 18:10:52;;;;;;;6.53;0.83;;;9.00;99.90;;;;;;4916193;29;20244;-78
2024/02/22 18:13:20;;;;;;;3.27;0.33;;;8.90;99.90;;;;;;4916276;29;20233;-79
2024/02/22 18:15:47;;;;;;;3.40;0.63;;;8.90;99.90;;;;;;4918068;29;20213;-78
2024/02/22 18:18:15;;;;;;;3.67;0.40;;;8.90;99.90;;;;;;4919800;29;20753;-78
2024/02/22 18:20:42;;;;;;;0.80;0.30;;;8.90;99.90;;;;;;4919614;29;20213;-78
2024/02/22 18:23:09;;;;;;;6.77;1.53;;;8.80;99.90;;;;;;4913607;29;20274;-78
2024/02/22 18:25:35;;;;;;;4.93;1.70;;;8.90;99.90;;;;;;4918390;29;20214;-79
2024/02/22 18:28:04;;;;;;;1.03;0.80;;;8.80;99.90;;;;;;4918233;29;20321;-79
2024/02/22 18:30:34;;;;;;;1.47;0.50;;;8.80;99.90;;;;;;4918634;29;20252;-79
2024/02/22 18:33:01;;;;;;;3.53;0.60;;;8.70;99.90;;;;;;4918652;29;20269;-77
2024/02/22 18:35:28;;;;;;;2.63;1.03;;;8.80;99.90;;;;;;4918752;29;20245;-78
2024/02/22 18:37:56;;;;;;;6.53;0.90;;;8.80;99.90;;;;;;4918530;29;20215;-78
2024/02/22 18:40:23;;;;;;;1.10;0.60;;;8.80;99.90;;;;;;4919116;29;20634;-78
2024/02/22 18:42:50;;;;;;;3.47;0.50;;;8.70;99.90;;;;;;4920250;29;20268;-78
2024/02/22 18:45:18;;;;;;;1.57;0.40;;;8.80;99.90;;;;;;4918617;29;20232;-79
2024/02/22 18:47:47;;;;;;;3.40;0.37;;;8.80;99.90;;;;;;4918301;29;20674;-78
2024/02/22 18:50:14;;;;;;;3.00;0.50;;;8.80;99.90;;;;;;4917768;29;20210;-78
2024/02/22 18:52:41;;;;;;;1.13;0.40;;;8.80;99.90;;;;;;4911955;29;20423;-79
2024/02/22 18:55:09;;;;;;;7.30;0.60;;;8.80;99.90;;;;;;4910439;29;20301;-79
2024/02/22 18:57:36;;;;;;;2.30;0.37;;;8.70;99.90;;;;;;4913685;29;20225;-78
2024/02/22 19:00:04;;;;;;;2.73;0.40;;;8.70;99.90;;;;;;4912192;29;20577;-77
2024/02/22 19:02:33;;;;;;;0.60;0.30;;;8.60;99.90;;;;;;4910923;29;20233;-78
2024/02/22 19:05:01;;;;;;;2.67;0.27;;;8.60;99.90;;;;;;4912869;29;20216;-78
2024/02/22 19:07:29;;;;;;;1.13;0.30;;;8.50;99.90;;;;;;4918292;29;20202;-77
2024/02/22 19:09:56;;;;;;;0.70;0.37;;;8.50;99.90;;;;;;4918399;29;20236;-78
2024/02/22 19:12:22;;;;;;;0.87;0.20;;;8.50;99.90;;;;;;4917803;29;20280;-79
2024/02/22 19:14:51;;;;;;;3.33;1.03;;;8.60;99.90;;;;;;4917680;29;20293;-79
2024/02/22 19:17:17;;;;;;;1.90;0.67;;;8.60;99.90;;;;;;4917796;29;20568;-79
2024/02/22 19:19:44;;;;;;;1.67;0.50;;;8.60;99.90;;;;;;4906427;29;20292;-78
2024/02/22 19:22:13;;;;;;;3.23;0.83;;;8.60;99.90;;;;;;4915832;29;20328;-78
2024/02/22 19:24:40;;;;;;;3.20;0.50;;;8.60;99.90;;;;;;4902110;29;20211;-78
2024/02/22 19:27:07;;;;;;;6.67;0.70;;;8.60;99.90;;;;;;4911285;29;20800;-79
2024/02/22 19:29:37;;;;;;;4.80;0.70;;;8.60;99.90;;;;;;4907008;29;20308;-78
2024/02/22 19:32:05;;;;;;;4.10;0.50;;;8.60;99.90;;;;;;4917385;29;20240;-79
2024/02/22 19:34:32;;;;;;;2.47;0.40;;;8.40;99.90;;;;;;4911217;29;20217;-79
2024/02/22 19:36:59;;;;;;;1.00;0.30;;;8.10;99.90;;;;;;4912627;29;20554;-79
2024/02/22 19:39:28;;;;;;;4.57;0.60;;;7.90;99.90;;;;;;4901927;29;20214;-79
2024/02/22 19:41:56;;;;;;;8.03;0.70;;;7.70;99.90;;;;;;4914853;29;20347;-77
2024/02/22 19:44:23;;;;;;;2.70;0.60;;;7.70;99.90;;;;;;4916829;29;20221;-78
2024/02/22 19:46:50;;;;;;;0.80;0.30;;;7.70;99.90;;;;;;4908346;29;20205;-77
2024/02/22 19:49:17;;;;;;;3.03;0.70;;;7.70;99.90;;;;;;4918138;29;20300;-76
2024/02/22 19:51:44;;;;;;;3.73;0.87;;;7.70;99.90;;;;;;4917678;29;20209;-77
2024/02/22 19:54:11;;;;;;;1.40;0.67;;;7.80;99.90;;;;;;4917944;29;20234;-77
2024/02/22 19:56:39;;;;;;;2.90;0.87;;;7.80;99.90;;;;;;4918022;29;20249;-76
2024/02/22 19:59:06;;;;;;;5.20;1.33;;;7.90;99.90;;;;;;4917623;29;20261;-76
2024/02/22 20:01:33;;;;;;;2.67;0.37;;;7.90;99.90;;;;;;4908978;29;20324;-76
2024/02/22 20:04:00;;;;;;;4.63;0.60;;;7.90;99.90;;;;;;4912442;29;20289;-77
2024/02/22 20:06:27;;;;;;;5.23;0.67;;;8.00;99.90;;;;;;4909487;29;20297;-77
2024/02/22 20:08:56;;;;;;;5.83;0.60;;;8.10;99.90;;;;;;4917782;29;20213;-77
2024/02/22 20:11:23;;;;;;;4.23;0.87;;;8.20;99.90;;;;;;4913910;29;20261;-77
2024/02/22 20:13:53;;;;;;;0.37;0.37;;;8.20;99.90;;;;;;4916083;29;20652;-77
2024/02/22 20:16:20;;;;;;;3.27;1.33;;;8.20;99.90;;;;;;4917746;29;20228;-77
2024/02/22 20:18:47;;;;;;;3.27;0.53;;;8.20;99.90;;;;;;4917858;29;20212;-77
2024/02/22 20:21:14;;;;;;;1.90;0.33;;;8.30;99.90;;;;;;4917947;29;20305;-77
2024/02/22 20:23:41;;;;;;;6.77;1.17;;;8.20;99.90;;;;;;4917347;29;20260;-77
2024/02/22 20:26:08;;;;;;;7.13;0.70;;;8.20;99.90;;;;;;4917783;29;20740;-77
2024/02/22 20:28:35;;;;;;;2.37;0.37;;;8.20;99.90;;;;;;4917608;29;20269;-77
2024/02/22 20:31:03;;;;;;;2.00;0.40;;;8.20;99.90;;;;;;4917756;29;20296;-77
2024/02/22 20:33:30;;;;;;;1.17;0.47;;;8.20;99.90;;;;;;4916529;29;20261;-76
2024/02/22 20:35:57;;;;;;;1.43;0.53;;;8.20;99.90;;;;;;4916540;29;20269;-76
2024/02/22 20:38:26;;;;;;;7.03;1.20;;;8.20;99.90;;;;;;4916745;29;20229;-76
2024/02/22 20:40:55;;;;;;;0.30;0.20;;;8.20;99.90;;;;;;4908961;29;20206;-77
2024/02/22 20:43:24;;;;;;;2.60;0.33;;;8.20;99.90;;;;;;4908765;29;20693;-77
2024/02/22 20:45:55;;;;;;;1.63;0.50;;;8.10;99.90;;;;;;4916566;29;20220;-77
2024/02/22 20:48:24;;;;;;;0.97;0.23;;;8.00;99.90;;;;;;4913889;29;20209;-76
2024/02/22 20:50:51;;;;;;;0.87;0.37;;;7.90;99.90;;;;;;4916455;29;20261;-77
2024/02/22 20:53:18;;;;;;;3.13;0.53;;;7.90;99.90;;;;;;4916025;29;20249;-76
2024/02/22 20:55:45;;;;;;;1.10;0.37;;;7.90;99.90;;;;;;4916611;29;20237;-77
2024/02/22 20:58:12;;;;;;;1.97;0.20;;;7.90;99.90;;;;;;4916436;29;20202;-76
2024/02/22 21:00:40;;;;;;;0.33;0.20;;;8.00;99.90;;;;;;4915833;29;20212;-77
2024/02/22 21:03:07;;;;;;;2.50;0.30;;;7.90;99.90;;;;;;4915302;29;20241;-77
2024/02/22 21:05:36;;;;;;;0.23;0.17;;;7.70;99.90;;;;;;4916078;29;20209;-77
2024/02/22 21:08:05;;;;;;;1.63;0.23;;;7.50;99.90;;;;;;4916571;29;20622;-76